sensor_id;sensor_type;location;lat;lon;timestamp;temperature;humidity
39019;DHT22;24786;51.984;5.872;2023-02-21T00:02:05;8.90;99.90
39019;DHT22;24786;51.984;5.872;2023-02-21T00:04:49;8.90;99.90
39019;DHT22;24786;51.984;5.872;2023-02-21T00:07:33;8.90;99.90
39019;DHT22;24786;51.984;5.872;2023-02-21T00:10:17;8.90;99.90
39019;DHT22;24786;51.984;5.872;2023-02-21T00:13:01;8.90;99.90
39019;DHT22;24786;51.984;5.872;2023-02-21T00:15:45;8.90;99.90
39019;DHT22;24786;51.984;5.872;2023-02-21T00:18:33;8.90;99.90
39019;DHT22;24786;51.984;5.872;2023-02-21T00:21:17;8.90;99.90
39019;DHT22;24786;51.984;5.872;2023-02-21T00:24:02;9.00;99.90
39019;DHT22;24786;51.984;5.872;2023-02-21T00:26:46;8.90;99.90
39019;DHT22;24786;51.984;5.872;2023-02-21T00:29:30;8.90;99.90
39019;DHT22;24786;51.984;5.872;2023-02-21T00:32:14;8.80;99.90
39019;DHT22;24786;51.984;5.872;2023-02-21T00:34:58;8.80;99.90
39019;DHT22;24786;51.984;5.872;2023-02-21T00:37:42;8.90;99.90
39019;DHT22;24786;51.984;5.872;2023-02-21T00:40:26;8.80;99.90
39019;DHT22;24786;51.984;5.872;2023-02-21T00:43:10;8.80;99.90
39019;DHT22;24786;51.984;5.872;2023-02-21T00:45:54;8.90;99.90
39019;DHT22;24786;51.984;5.872;2023-02-21T00:48:38;8.90;99.90
39019;DHT22;24786;51.984;5.872;2023-02-21T00:51:23;8.80;99.90
39019;DHT22;24786;51.984;5.872;2023-02-21T00:54:07;8.80;99.90
39019;DHT22;24786;51.984;5.872;2023-02-21T00:56:51;8.80;99.90
39019;DHT22;24786;51.984;5.872;2023-02-21T00:59:35;8.80;99.90
39019;DHT22;24786;51.984;5.872;2023-02-21T01:02:19;8.80;99.90
39019;DHT22;24786;51.984;5.872;2023-02-21T01:05:03;8.80;99.90
39019;DHT22;24786;51.984;5.872;2023-02-21T01:07:48;8.80;99.90
39019;DHT22;24786;51.984;5.872;2023-02-21T01:10:32;8.80;99.90
39019;DHT22;24786;51.984;5.872;2023-02-21T01:13:16;8.80;99.90
39019;DHT22;24786;51.984;5.872;2023-02-21T01:16:00;8.80;99.90
39019;DHT22;24786;51.984;5.872;2023-02-21T01:18:44;8.80;99.90
39019;DHT22;24786;51.984;5.872;2023-02-21T01:21:28;8.80;99.90
39019;DHT22;24786;51.984;5.872;2023-02-21T01:24:15;8.80;99.90
39019;DHT22;24786;51.984;5.872;2023-02-21T01:27:00;8.90;99.90
39019;DHT22;24786;51.984;5.872;2023-02-21T01:29:44;8.80;99.90
39019;DHT22;24786;51.984;5.872;2023-02-21T01:32:28;8.80;99.90
39019;DHT22;24786;51.984;5.872;2023-02-21T01:35:12;8.80;99.90
39019;DHT22;24786;51.984;5.872;2023-02-21T01:37:56;8.80;99.90
39019;DHT22;24786;51.984;5.872;2023-02-21T01:40:40;8.80;99.90
39019;DHT22;24786;51.984;5.872;2023-02-21T01:43:26;8.80;99.90
39019;DHT22;24786;51.984;5.872;2023-02-21T01:46:13;8.90;99.90
39019;DHT22;24786;51.984;5.872;2023-02-21T01:49:01;8.80;99.90
39019;DHT22;24786;51.984;5.872;2023-02-21T01:51:47;8.80;99.90
39019;DHT22;24786;51.984;5.872;2023-02-21T01:54:35;8.80;99.90
39019;DHT22;24786;51.984;5.872;2023-02-21T01:57:20;8.80;99.90
39019;DHT22;24786;51.984;5.872;2023-02-21T02:00:07;8.80;99.90
39019;DHT22;24786;51.984;5.872;2023-02-21T02:03:04;8.80;99.90
39019;DHT22;24786;51.984;5.872;2023-02-21T02:05:52;8.80;99.90
39019;DHT22;24786;51.984;5.872;2023-02-21T02:08:37;8.80;99.90
39019;DHT22;24786;51.984;5.872;2023-02-21T02:23:42;8.80;99.90
39019;DHT22;24786;51.984;5.872;2023-02-21T02:40:42;8.80;99.90
39019;DHT22;24786;51.984;5.872;2023-02-21T02:43:26;8.80;99.90
39019;DHT22;24786;51.984;5.872;2023-02-21T02:48:34;8.80;99.90
39019;DHT22;24786;51.984;5.872;2023-02-21T02:51:04;8.80;99.90
39019;DHT22;24786;51.984;5.872;2023-02-21T02:53:31;8.80;99.90
39019;DHT22;24786;51.984;5.872;2023-02-21T02:56:02;8.80;99.90
39019;DHT22;24786;51.984;5.872;2023-02-21T02:58:31;8.80;99.90
39019;DHT22;24786;51.984;5.872;2023-02-21T03:06:12;8.80;99.90
39019;DHT22;24786;51.984;5.872;2023-02-21T03:11:22;8.80;99.90
39019;DHT22;24786;51.984;5.872;2023-02-21T03:13:58;8.80;99.90
39019;DHT22;24786;51.984;5.872;2023-02-21T03:16:28;8.70;99.90
39019;DHT22;24786;51.984;5.872;2023-02-21T03:19:09;8.80;99.90
39019;DHT22;24786;51.984;5.872;2023-02-21T03:21:57;8.70;99.90
39019;DHT22;24786;51.984;5.872;2023-02-21T03:24:25;8.70;99.90
39019;DHT22;24786;51.984;5.872;2023-02-21T03:26:55;8.70;99.90
39019;DHT22;24786;51.984;5.872;2023-02-21T03:29:21;8.70;99.90
39019;DHT22;24786;51.984;5.872;2023-02-21T03:32:05;8.70;99.90
39019;DHT22;24786;51.984;5.872;2023-02-21T03:34:39;8.70;99.90
39019;DHT22;24786;51.984;5.872;2023-02-21T03:37:07;8.70;99.90
39019;DHT22;24786;51.984;5.872;2023-02-21T03:39:33;8.70;99.90
39019;DHT22;24786;51.984;5.872;2023-02-21T03:41:59;8.60;99.90
39019;DHT22;24786;51.984;5.872;2023-02-21T03:44:24;8.60;99.90
39019;DHT22;24786;51.984;5.872;2023-02-21T03:46:50;8.60;99.90
39019;DHT22;24786;51.984;5.872;2023-02-21T03:49:15;8.60;99.90
39019;DHT22;24786;51.984;5.872;2023-02-21T03:51:41;8.60;99.90
39019;DHT22;24786;51.984;5.872;2023-02-21T03:54:06;8.60;99.90
39019;DHT22;24786;51.984;5.872;2023-02-21T03:56:32;8.60;99.90
39019;DHT22;24786;51.984;5.872;2023-02-21T03:58:57;8.60;99.90
39019;DHT22;24786;51.984;5.872;2023-02-21T04:01:23;8.60;99.90
39019;DHT22;24786;51.984;5.872;2023-02-21T04:03:48;8.60;99.90
39019;DHT22;24786;51.984;5.872;2023-02-21T04:06:14;8.60;99.90
39019;DHT22;24786;51.984;5.872;2023-02-21T04:08:40;8.60;99.90
39019;DHT22;24786;51.984;5.872;2023-02-21T04:11:05;8.60;99.90
39019;DHT22;24786;51.984;5.872;2023-02-21T04:13:31;8.60;99.90
39019;DHT22;24786;51.984;5.872;2023-02-21T04:15:57;8.60;99.90
39019;DHT22;24786;51.984;5.872;2023-02-21T04:18:22;8.60;99.90
39019;DHT22;24786;51.984;5.872;2023-02-21T04:20:48;8.60;99.90
39019;DHT22;24786;51.984;5.872;2023-02-21T04:23:18;8.60;99.90
39019;DHT22;24786;51.984;5.872;2023-02-21T04:25:43;8.60;99.90
39019;DHT22;24786;51.984;5.872;2023-02-21T04:28:09;8.60;99.90
39019;DHT22;24786;51.984;5.872;2023-02-21T04:30:34;8.60;99.90
39019;DHT22;24786;51.984;5.872;2023-02-21T04:33:00;8.60;99.90
39019;DHT22;24786;51.984;5.872;2023-02-21T04:35:27;8.60;99.90
39019;DHT22;24786;51.984;5.872;2023-02-21T04:37:53;8.60;99.90
39019;DHT22;24786;51.984;5.872;2023-02-21T04:40:19;8.50;99.90
39019;DHT22;24786;51.984;5.872;2023-02-21T04:42:44;8.60;99.90
39019;DHT22;24786;51.984;5.872;2023-02-21T04:45:10;8.60;99.90
39019;DHT22;24786;51.984;5.872;2023-02-21T04:47:36;8.60;99.90
39019;DHT22;24786;51.984;5.872;2023-02-21T04:50:02;8.60;99.90
39019;DHT22;24786;51.984;5.872;2023-02-21T04:52:28;8.60;99.90
39019;DHT22;24786;51.984;5.872;2023-02-21T04:54:53;8.50;99.90
39019;DHT22;24786;51.984;5.872;2023-02-21T04:57:19;8.50;99.90
39019;DHT22;24786;51.984;5.872;2023-02-21T04:59:44;8.50;99.90
39019;DHT22;24786;51.984;5.872;2023-02-21T05:02:10;8.50;99.90
39019;DHT22;24786;51.984;5.872;2023-02-21T05:04:38;8.50;99.90
39019;DHT22;24786;51.984;5.872;2023-02-21T05:07:04;8.50;99.90
39019;DHT22;24786;51.984;5.872;2023-02-21T05:09:30;8.50;99.90
39019;DHT22;24786;51.984;5.872;2023-02-21T05:11:56;8.40;99.90
39019;DHT22;24786;51.984;5.872;2023-02-21T05:14:21;8.50;99.90
39019;DHT22;24786;51.984;5.872;2023-02-21T05:16:47;8.40;99.90
39019;DHT22;24786;51.984;5.872;2023-02-21T05:19:22;8.50;99.90
39019;DHT22;24786;51.984;5.872;2023-02-21T05:21:56;8.50;99.90
39019;DHT22;24786;51.984;5.872;2023-02-21T05:24:23;8.50;99.90
39019;DHT22;24786;51.984;5.872;2023-02-21T05:26:49;8.50;99.90
39019;DHT22;24786;51.984;5.872;2023-02-21T05:29:15;8.50;99.90
39019;DHT22;24786;51.984;5.872;2023-02-21T05:31:41;8.40;99.90
39019;DHT22;24786;51.984;5.872;2023-02-21T05:34:07;8.50;99.90
39019;DHT22;24786;51.984;5.872;2023-02-21T05:36:36;8.50;99.90
39019;DHT22;24786;51.984;5.872;2023-02-21T05:39:02;8.50;99.90
39019;DHT22;24786;51.984;5.872;2023-02-21T05:41:28;8.50;99.90
39019;DHT22;24786;51.984;5.872;2023-02-21T05:43:53;8.50;99.90
39019;DHT22;24786;51.984;5.872;2023-02-21T05:46:27;8.60;99.90
39019;DHT22;24786;51.984;5.872;2023-02-21T05:48:53;8.60;99.90
39019;DHT22;24786;51.984;5.872;2023-02-21T05:51:19;8.60;99.90
39019;DHT22;24786;51.984;5.872;2023-02-21T05:53:45;8.60;99.90
39019;DHT22;24786;51.984;5.872;2023-02-21T05:56:12;8.60;99.90
39019;DHT22;24786;51.984;5.872;2023-02-21T05:58:37;8.50;99.90
39019;DHT22;24786;51.984;5.872;2023-02-21T06:01:03;8.60;99.90
39019;DHT22;24786;51.984;5.872;2023-02-21T06:03:29;8.60;99.90
39019;DHT22;24786;51.984;5.872;2023-02-21T06:05:55;8.50;99.90
39019;DHT22;24786;51.984;5.872;2023-02-21T06:08:20;8.60;99.90
39019;DHT22;24786;51.984;5.872;2023-02-21T06:10:46;8.50;99.90
39019;DHT22;24786;51.984;5.872;2023-02-21T06:13:11;8.50;99.90
39019;DHT22;24786;51.984;5.872;2023-02-21T06:15:37;8.50;99.90
39019;DHT22;24786;51.984;5.872;2023-02-21T06:18:03;8.50;99.90
39019;DHT22;24786;51.984;5.872;2023-02-21T06:20:28;8.40;99.90
39019;DHT22;24786;51.984;5.872;2023-02-21T06:22:54;8.50;99.90
39019;DHT22;24786;51.984;5.872;2023-02-21T06:25:19;8.50;99.90
39019;DHT22;24786;51.984;5.872;2023-02-21T06:27:45;8.50;99.90
39019;DHT22;24786;51.984;5.872;2023-02-21T06:30:11;8.50;99.90
39019;DHT22;24786;51.984;5.872;2023-02-21T06:32:37;8.50;99.90
39019;DHT22;24786;51.984;5.872;2023-02-21T06:35:03;8.50;99.90
39019;DHT22;24786;51.984;5.872;2023-02-21T06:37:29;8.50;99.90
39019;DHT22;24786;51.984;5.872;2023-02-21T06:39:54;8.50;99.90
39019;DHT22;24786;51.984;5.872;2023-02-21T06:42:20;8.50;99.90
39019;DHT22;24786;51.984;5.872;2023-02-21T06:44:48;8.50;99.90
39019;DHT22;24786;51.984;5.872;2023-02-21T06:47:14;8.50;99.90
39019;DHT22;24786;51.984;5.872;2023-02-21T06:49:40;8.50;99.90
39019;DHT22;24786;51.984;5.872;2023-02-21T06:52:06;8.50;99.90
39019;DHT22;24786;51.984;5.872;2023-02-21T06:54:32;8.50;99.90
39019;DHT22;24786;51.984;5.872;2023-02-21T06:56:57;8.60;99.90
39019;DHT22;24786;51.984;5.872;2023-02-21T06:59:27;8.60;99.90
39019;DHT22;24786;51.984;5.872;2023-02-21T07:01:54;8.60;99.90
39019;DHT22;24786;51.984;5.872;2023-02-21T07:04:20;8.50;99.90
39019;DHT22;24786;51.984;5.872;2023-02-21T07:06:54;8.60;99.90
39019;DHT22;24786;51.984;5.872;2023-02-21T07:09:39;8.50;99.90
39019;DHT22;24786;51.984;5.872;2023-02-21T07:15:41;8.60;99.90
39019;DHT22;24786;51.984;5.872;2023-02-21T07:18:07;8.60;99.90
39019;DHT22;24786;51.984;5.872;2023-02-21T07:20:35;8.60;99.90
39019;DHT22;24786;51.984;5.872;2023-02-21T07:23:01;8.50;99.90
39019;DHT22;24786;51.984;5.872;2023-02-21T07:25:26;8.50;99.90
39019;DHT22;24786;51.984;5.872;2023-02-21T07:27:52;8.50;99.90
39019;DHT22;24786;51.984;5.872;2023-02-21T07:30:18;8.50;99.90
39019;DHT22;24786;51.984;5.872;2023-02-21T07:32:44;8.60;99.90
39019;DHT22;24786;51.984;5.872;2023-02-21T07:35:10;8.50;99.90
39019;DHT22;24786;51.984;5.872;2023-02-21T07:37:35;8.50;99.90
39019;DHT22;24786;51.984;5.872;2023-02-21T07:40:01;8.50;99.90
39019;DHT22;24786;51.984;5.872;2023-02-21T07:42:27;8.60;99.90
39019;DHT22;24786;51.984;5.872;2023-02-21T07:44:56;8.60;99.90
39019;DHT22;24786;51.984;5.872;2023-02-21T07:47:23;8.60;99.90
39019;DHT22;24786;51.984;5.872;2023-02-21T07:49:49;8.60;99.90
39019;DHT22;24786;51.984;5.872;2023-02-21T07:52:16;8.60;99.90
39019;DHT22;24786;51.984;5.872;2023-02-21T07:54:41;8.60;99.90
39019;DHT22;24786;51.984;5.872;2023-02-21T07:57:07;8.60;99.90
39019;DHT22;24786;51.984;5.872;2023-02-21T07:59:33;8.60;99.90
39019;DHT22;24786;51.984;5.872;2023-02-21T08:01:58;8.60;99.90
39019;DHT22;24786;51.984;5.872;2023-02-21T08:04:24;8.60;99.90
39019;DHT22;24786;51.984;5.872;2023-02-21T08:06:50;8.60;99.90
39019;DHT22;24786;51.984;5.872;2023-02-21T08:09:16;8.60;99.90
39019;DHT22;24786;51.984;5.872;2023-02-21T08:11:42;8.60;99.90
39019;DHT22;24786;51.984;5.872;2023-02-21T08:14:07;8.60;99.90
39019;DHT22;24786;51.984;5.872;2023-02-21T08:16:33;8.60;99.90
39019;DHT22;24786;51.984;5.872;2023-02-21T08:18:58;8.60;99.90
39019;DHT22;24786;51.984;5.872;2023-02-21T08:21:24;8.60;99.90
39019;DHT22;24786;51.984;5.872;2023-02-21T08:23:53;8.70;99.90
39019;DHT22;24786;51.984;5.872;2023-02-21T08:26:19;8.70;99.90
39019;DHT22;24786;51.984;5.872;2023-02-21T08:28:45;8.60;99.90
39019;DHT22;24786;51.984;5.872;2023-02-21T08:31:10;8.60;99.90
39019;DHT22;24786;51.984;5.872;2023-02-21T08:33:36;8.60;99.90
39019;DHT22;24786;51.984;5.872;2023-02-21T08:36:02;8.60;99.90
39019;DHT22;24786;51.984;5.872;2023-02-21T08:38:27;8.60;99.90
39019;DHT22;24786;51.984;5.872;2023-02-21T08:40:53;8.60;99.90
39019;DHT22;24786;51.984;5.872;2023-02-21T08:43:19;8.60;99.90
39019;DHT22;24786;51.984;5.872;2023-02-21T08:45:44;8.70;99.90
39019;DHT22;24786;51.984;5.872;2023-02-21T08:48:10;8.70;99.90
39019;DHT22;24786;51.984;5.872;2023-02-21T08:50:36;8.70;99.90
39019;DHT22;24786;51.984;5.872;2023-02-21T08:53:02;8.70;99.90
39019;DHT22;24786;51.984;5.872;2023-02-21T08:55:28;8.70;99.90
39019;DHT22;24786;51.984;5.872;2023-02-21T08:57:54;8.70;99.90
39019;DHT22;24786;51.984;5.872;2023-02-21T09:00:22;8.70;99.90
39019;DHT22;24786;51.984;5.872;2023-02-21T09:02:51;8.70;99.90
39019;DHT22;24786;51.984;5.872;2023-02-21T09:05:28;8.70;99.90
39019;DHT22;24786;51.984;5.872;2023-02-21T09:07:55;8.80;99.90
39019;DHT22;24786;51.984;5.872;2023-02-21T09:10:27;8.80;99.90
39019;DHT22;24786;51.984;5.872;2023-02-21T09:12:53;8.70;99.90
39019;DHT22;24786;51.984;5.872;2023-02-21T09:15:19;8.80;99.90
39019;DHT22;24786;51.984;5.872;2023-02-21T09:17:45;8.80;99.90
39019;DHT22;24786;51.984;5.872;2023-02-21T09:20:15;8.80;99.90
39019;DHT22;24786;51.984;5.872;2023-02-21T09:22:42;8.80;99.90
39019;DHT22;24786;51.984;5.872;2023-02-21T09:25:13;8.80;99.90
39019;DHT22;24786;51.984;5.872;2023-02-21T09:27:40;8.80;99.90
39019;DHT22;24786;51.984;5.872;2023-02-21T09:30:10;8.80;99.90
39019;DHT22;24786;51.984;5.872;2023-02-21T09:32:36;8.80;99.90
39019;DHT22;24786;51.984;5.872;2023-02-21T09:35:02;8.80;99.90
39019;DHT22;24786;51.984;5.872;2023-02-21T09:37:28;8.90;99.90
39019;DHT22;24786;51.984;5.872;2023-02-21T09:39:54;8.90;99.90
39019;DHT22;24786;51.984;5.872;2023-02-21T09:42:23;8.80;99.90
39019;DHT22;24786;51.984;5.872;2023-02-21T09:44:51;8.90;99.90
39019;DHT22;24786;51.984;5.872;2023-02-21T09:47:36;9.00;99.90
39019;DHT22;24786;51.984;5.872;2023-02-21T09:50:06;8.90;99.90
39019;DHT22;24786;51.984;5.872;2023-02-21T09:52:35;8.90;99.90
39019;DHT22;24786;51.984;5.872;2023-02-21T09:55:12;8.90;99.90
39019;DHT22;24786;51.984;5.872;2023-02-21T09:57:38;8.90;99.90
39019;DHT22;24786;51.984;5.872;2023-02-21T10:00:27;8.90;99.90
39019;DHT22;24786;51.984;5.872;2023-02-21T10:03:44;8.90;99.90
39019;DHT22;24786;51.984;5.872;2023-02-21T10:08:55;8.90;99.90
39019;DHT22;24786;51.984;5.872;2023-02-21T10:12:04;9.00;99.90
39019;DHT22;24786;51.984;5.872;2023-02-21T10:15:00;9.00;99.90
39019;DHT22;24786;51.984;5.872;2023-02-21T10:20:32;9.10;99.90
39019;DHT22;24786;51.984;5.872;2023-02-21T10:23:00;9.10;99.90
39019;DHT22;24786;51.984;5.872;2023-02-21T10:25:29;9.10;99.90
39019;DHT22;24786;51.984;5.872;2023-02-21T10:27:56;9.10;99.90
39019;DHT22;24786;51.984;5.872;2023-02-21T10:30:32;9.10;99.90
39019;DHT22;24786;51.984;5.872;2023-02-21T10:33:00;9.10;99.90
39019;DHT22;24786;51.984;5.872;2023-02-21T10:35:39;9.10;99.90
39019;DHT22;24786;51.984;5.872;2023-02-21T10:38:11;9.10;99.90
39019;DHT22;24786;51.984;5.872;2023-02-21T10:43:40;9.20;99.90
39019;DHT22;24786;51.984;5.872;2023-02-21T10:46:17;9.20;99.90
39019;DHT22;24786;51.984;5.872;2023-02-21T10:48:46;9.20;99.90
39019;DHT22;24786;51.984;5.872;2023-02-21T10:51:32;9.20;99.90
39019;DHT22;24786;51.984;5.872;2023-02-21T10:54:20;9.20;99.90
39019;DHT22;24786;51.984;5.872;2023-02-21T10:56:47;9.20;99.90
39019;DHT22;24786;51.984;5.872;2023-02-21T10:59:27;9.20;99.90
39019;DHT22;24786;51.984;5.872;2023-02-21T11:01:54;9.20;99.90
39019;DHT22;24786;51.984;5.872;2023-02-21T11:04:22;9.20;99.90
39019;DHT22;24786;51.984;5.872;2023-02-21T11:07:05;9.20;99.90
39019;DHT22;24786;51.984;5.872;2023-02-21T11:09:40;9.20;99.90
39019;DHT22;24786;51.984;5.872;2023-02-21T11:12:27;9.20;99.90
39019;DHT22;24786;51.984;5.872;2023-02-21T11:17:27;9.20;99.90
39019;DHT22;24786;51.984;5.872;2023-02-21T11:19:55;9.20;99.90
39019;DHT22;24786;51.984;5.872;2023-02-21T11:22:24;9.20;99.90
39019;DHT22;24786;51.984;5.872;2023-02-21T11:24:51;9.20;99.90
39019;DHT22;24786;51.984;5.872;2023-02-21T11:27:18;9.20;99.90
39019;DHT22;24786;51.984;5.872;2023-02-21T11:30:12;9.20;99.90
39019;DHT22;24786;51.984;5.872;2023-02-21T11:32:36;9.20;99.90
39019;DHT22;24786;51.984;5.872;2023-02-21T11:37:48;9.20;99.90
39019;DHT22;24786;51.984;5.872;2023-02-21T11:40:46;9.20;99.90
39019;DHT22;24786;51.984;5.872;2023-02-21T11:43:32;9.20;99.90
39019;DHT22;24786;51.984;5.872;2023-02-21T11:49:19;9.20;99.90
39019;DHT22;24786;51.984;5.872;2023-02-21T11:51:54;9.20;99.90
39019;DHT22;24786;51.984;5.872;2023-02-21T11:54:27;9.30;99.90
39019;DHT22;24786;51.984;5.872;2023-02-21T11:59:45;9.30;99.90
39019;DHT22;24786;51.984;5.872;2023-02-21T12:02:41;9.30;99.90
39019;DHT22;24786;51.984;5.872;2023-02-21T12:05:36;9.30;99.90
39019;DHT22;24786;51.984;5.872;2023-02-21T12:17:17;9.40;99.90
39019;DHT22;24786;51.984;5.872;2023-02-21T12:25:14;9.30;99.90
39019;DHT22;24786;51.984;5.872;2023-02-21T12:32:54;9.20;99.90
39019;DHT22;24786;51.984;5.872;2023-02-21T12:35:48;9.20;99.90
39019;DHT22;24786;51.984;5.872;2023-02-21T12:46:40;9.20;99.90
39019;DHT22;24786;51.984;5.872;2023-02-21T12:55:22;9.20;99.90
39019;DHT22;24786;51.984;5.872;2023-02-21T12:57:58;9.20;99.90
39019;DHT22;24786;51.984;5.872;2023-02-21T13:00:34;9.20;99.90
39019;DHT22;24786;51.984;5.872;2023-02-21T13:05:44;9.20;99.90
39019;DHT22;24786;51.984;5.872;2023-02-21T13:08:18;9.20;99.90
39019;DHT22;24786;51.984;5.872;2023-02-21T13:10:58;9.20;99.90
39019;DHT22;24786;51.984;5.872;2023-02-21T13:13:31;9.20;99.90
39019;DHT22;24786;51.984;5.872;2023-02-21T13:16:01;9.20;99.90
39019;DHT22;24786;51.984;5.872;2023-02-21T13:18:28;9.30;99.90
39019;DHT22;24786;51.984;5.872;2023-02-21T13:24:05;9.30;99.90
39019;DHT22;24786;51.984;5.872;2023-02-21T13:27:32;9.30;99.90
39019;DHT22;24786;51.984;5.872;2023-02-21T13:30:10;9.30;99.90
39019;DHT22;24786;51.984;5.872;2023-02-21T13:32:37;9.30;99.90
39019;DHT22;24786;51.984;5.872;2023-02-21T13:35:06;9.40;99.90
39019;DHT22;24786;51.984;5.872;2023-02-21T13:37:34;9.40;99.90
39019;DHT22;24786;51.984;5.872;2023-02-21T13:40:20;9.40;99.90
39019;DHT22;24786;51.984;5.872;2023-02-21T13:42:58;9.40;99.90
39019;DHT22;24786;51.984;5.872;2023-02-21T13:45:25;9.30;99.90
39019;DHT22;24786;51.984;5.872;2023-02-21T13:53:19;9.40;99.90
39019;DHT22;24786;51.984;5.872;2023-02-21T13:58:35;9.40;99.90
39019;DHT22;24786;51.984;5.872;2023-02-21T14:03:42;9.50;99.90
39019;DHT22;24786;51.984;5.872;2023-02-21T14:08:49;9.40;99.90
39019;DHT22;24786;51.984;5.872;2023-02-21T14:11:19;9.30;99.90
39019;DHT22;24786;51.984;5.872;2023-02-21T14:14:02;9.40;99.90
39019;DHT22;24786;51.984;5.872;2023-02-21T14:16:45;9.40;99.90
39019;DHT22;24786;51.984;5.872;2023-02-21T14:19:19;9.30;99.90
39019;DHT22;24786;51.984;5.872;2023-02-21T14:21:48;9.30;99.90
39019;DHT22;24786;51.984;5.872;2023-02-21T14:24:20;9.30;99.90
39019;DHT22;24786;51.984;5.872;2023-02-21T14:26:55;9.30;99.90
39019;DHT22;24786;51.984;5.872;2023-02-21T14:29:43;9.30;99.90
39019;DHT22;24786;51.984;5.872;2023-02-21T14:59:14;9.30;99.90
39019;DHT22;24786;51.984;5.872;2023-02-21T15:04:18;9.40;99.90
39019;DHT22;24786;51.984;5.872;2023-02-21T15:09:26;9.40;99.90
39019;DHT22;24786;51.984;5.872;2023-02-21T15:11:52;9.40;99.90
39019;DHT22;24786;51.984;5.872;2023-02-21T15:14:23;9.40;99.90
39019;DHT22;24786;51.984;5.872;2023-02-21T15:17:00;9.40;99.90
39019;DHT22;24786;51.984;5.872;2023-02-21T15:19:34;9.40;99.90
39019;DHT22;24786;51.984;5.872;2023-02-21T15:27:36;9.40;99.90
39019;DHT22;24786;51.984;5.872;2023-02-21T15:30:15;9.40;99.90
39019;DHT22;24786;51.984;5.872;2023-02-21T15:32:42;9.40;99.90
39019;DHT22;24786;51.984;5.872;2023-02-21T15:35:17;9.40;99.90
39019;DHT22;24786;51.984;5.872;2023-02-21T15:37:46;9.40;99.90
39019;DHT22;24786;51.984;5.872;2023-02-21T15:40:23;9.30;99.90
39019;DHT22;24786;51.984;5.872;2023-02-21T15:42:50;9.30;99.90
39019;DHT22;24786;51.984;5.872;2023-02-21T15:45:27;9.30;99.90
39019;DHT22;24786;51.984;5.872;2023-02-21T15:47:54;9.30;99.90
39019;DHT22;24786;51.984;5.872;2023-02-21T15:50:31;9.30;99.90
39019;DHT22;24786;51.984;5.872;2023-02-21T15:53:10;9.30;99.90
39019;DHT22;24786;51.984;5.872;2023-02-21T15:55:40;9.30;99.90
39019;DHT22;24786;51.984;5.872;2023-02-21T15:58:15;9.30;99.90
39019;DHT22;24786;51.984;5.872;2023-02-21T16:01:03;9.20;99.90
39019;DHT22;24786;51.984;5.872;2023-02-21T16:03:38;9.20;99.90
39019;DHT22;24786;51.984;5.872;2023-02-21T16:11:19;9.20;99.90
39019;DHT22;24786;51.984;5.872;2023-02-21T16:13:45;9.20;99.90
39019;DHT22;24786;51.984;5.872;2023-02-21T16:16:11;9.20;99.90
39019;DHT22;24786;51.984;5.872;2023-02-21T16:18:36;9.20;99.90
39019;DHT22;24786;51.984;5.872;2023-02-21T16:21:07;9.20;99.90
39019;DHT22;24786;51.984;5.872;2023-02-21T16:23:40;9.20;99.90
39019;DHT22;24786;51.984;5.872;2023-02-21T16:28:40;9.20;99.90
39019;DHT22;24786;51.984;5.872;2023-02-21T16:31:15;9.20;99.90
39019;DHT22;24786;51.984;5.872;2023-02-21T16:33:41;9.20;99.90
39019;DHT22;24786;51.984;5.872;2023-02-21T16:36:14;9.20;99.90
39019;DHT22;24786;51.984;5.872;2023-02-21T16:38:40;9.20;99.90
39019;DHT22;24786;51.984;5.872;2023-02-21T16:41:11;9.10;99.90
39019;DHT22;24786;51.984;5.872;2023-02-21T16:43:37;9.10;99.90
39019;DHT22;24786;51.984;5.872;2023-02-21T16:46:25;9.10;99.90
39019;DHT22;24786;51.984;5.872;2023-02-21T16:48:58;9.10;99.90
39019;DHT22;24786;51.984;5.872;2023-02-21T16:51:24;9.10;99.90
39019;DHT22;24786;51.984;5.872;2023-02-21T16:53:50;9.10;99.90
39019;DHT22;24786;51.984;5.872;2023-02-21T16:56:15;9.10;99.90
39019;DHT22;24786;51.984;5.872;2023-02-21T16:58:45;9.10;99.90
39019;DHT22;24786;51.984;5.872;2023-02-21T17:01:14;9.10;99.90
39019;DHT22;24786;51.984;5.872;2023-02-21T17:03:40;9.10;99.90
39019;DHT22;24786;51.984;5.872;2023-02-21T17:06:07;9.00;99.90
39019;DHT22;24786;51.984;5.872;2023-02-21T17:08:39;9.10;99.90
39019;DHT22;24786;51.984;5.872;2023-02-21T17:11:07;9.00;99.90
39019;DHT22;24786;51.984;5.872;2023-02-21T17:13:36;9.00;99.90
39019;DHT22;24786;51.984;5.872;2023-02-21T17:16:01;9.00;99.90
39019;DHT22;24786;51.984;5.872;2023-02-21T17:18:27;8.90;99.90
39019;DHT22;24786;51.984;5.872;2023-02-21T17:20:54;9.00;99.90
39019;DHT22;24786;51.984;5.872;2023-02-21T17:23:20;9.00;99.90
39019;DHT22;24786;51.984;5.872;2023-02-21T17:26:06;8.90;99.90
39019;DHT22;24786;51.984;5.872;2023-02-21T17:28:32;8.90;99.90
39019;DHT22;24786;51.984;5.872;2023-02-21T17:30:58;8.90;99.90
39019;DHT22;24786;51.984;5.872;2023-02-21T17:33:24;8.90;99.90
39019;DHT22;24786;51.984;5.872;2023-02-21T17:35:52;8.90;99.90
39019;DHT22;24786;51.984;5.872;2023-02-21T17:38:17;8.90;99.90
39019;DHT22;24786;51.984;5.872;2023-02-21T17:40:43;8.90;99.90
39019;DHT22;24786;51.984;5.872;2023-02-21T17:43:10;8.90;99.90
39019;DHT22;24786;51.984;5.872;2023-02-21T17:45:36;8.90;99.90
39019;DHT22;24786;51.984;5.872;2023-02-21T17:48:02;8.90;99.90
39019;DHT22;24786;51.984;5.872;2023-02-21T17:50:29;8.90;99.90
39019;DHT22;24786;51.984;5.872;2023-02-21T17:52:55;8.90;99.90
39019;DHT22;24786;51.984;5.872;2023-02-21T17:55:25;8.90;99.90
39019;DHT22;24786;51.984;5.872;2023-02-21T17:57:51;8.90;99.90
39019;DHT22;24786;51.984;5.872;2023-02-21T18:03:15;8.80;99.90
39019;DHT22;24786;51.984;5.872;2023-02-21T18:05:40;8.80;99.90
39019;DHT22;24786;51.984;5.872;2023-02-21T18:08:06;8.80;99.90
39019;DHT22;24786;51.984;5.872;2023-02-21T18:10:31;8.80;99.90
39019;DHT22;24786;51.984;5.872;2023-02-21T18:12:57;8.80;99.90
39019;DHT22;24786;51.984;5.872;2023-02-21T18:15:24;8.80;99.90
39019;DHT22;24786;51.984;5.872;2023-02-21T18:17:51;8.80;99.90
39019;DHT22;24786;51.984;5.872;2023-02-21T18:20:17;8.80;99.90
39019;DHT22;24786;51.984;5.872;2023-02-21T18:22:43;8.80;99.90
39019;DHT22;24786;51.984;5.872;2023-02-21T18:25:09;8.80;99.90
39019;DHT22;24786;51.984;5.872;2023-02-21T18:27:35;8.80;99.90
39019;DHT22;24786;51.984;5.872;2023-02-21T18:30:01;8.80;99.90
39019;DHT22;24786;51.984;5.872;2023-02-21T18:32:28;8.70;99.90
39019;DHT22;24786;51.984;5.872;2023-02-21T18:34:53;8.70;99.90
39019;DHT22;24786;51.984;5.872;2023-02-21T18:40:12;8.70;99.90
39019;DHT22;24786;51.984;5.872;2023-02-21T18:42:50;8.70;99.90
39019;DHT22;24786;51.984;5.872;2023-02-21T18:45:16;8.70;99.90
39019;DHT22;24786;51.984;5.872;2023-02-21T18:47:41;8.70;99.90
39019;DHT22;24786;51.984;5.872;2023-02-21T18:50:13;8.60;99.90
39019;DHT22;24786;51.984;5.872;2023-02-21T18:52:57;8.70;99.90
39019;DHT22;24786;51.984;5.872;2023-02-21T18:55:29;8.60;99.90
39019;DHT22;24786;51.984;5.872;2023-02-21T18:57:55;8.60;99.90
39019;DHT22;24786;51.984;5.872;2023-02-21T19:00:21;8.60;99.90